sensor_id;sensor_type;location;lat;lon;timestamp;P1;durP1;ratioP1;P2;durP2;ratioP2
9473;SDS011;8865;47.636;7.692;2023-02-01T00:00:04;6.20;;;4.20;;
9473;SDS011;8865;47.636;7.692;2023-02-01T00:02:31;6.23;;;4.43;;
9473;SDS011;8865;47.636;7.692;2023-02-01T00:04:57;6.77;;;4.57;;
9473;SDS011;8865;47.636;7.692;2023-02-01T00:07:23;5.37;;;4.13;;
9473;SDS011;8865;47.636;7.692;2023-02-01T00:09:49;4.77;;;4.13;;
9473;SDS011;8865;47.636;7.692;2023-02-01T00:12:15;5.60;;;4.50;;
9473;SDS011;8865;47.636;7.692;2023-02-01T00:14:41;5.60;;;4.10;;
9473;SDS011;8865;47.636;7.692;2023-02-01T00:17:07;4.70;;;3.70;;
9473;SDS011;8865;47.636;7.692;2023-02-01T00:19:33;5.57;;;4.20;;
9473;SDS011;8865;47.636;7.692;2023-02-01T00:21:59;5.73;;;4.20;;
9473;SDS011;8865;47.636;7.692;2023-02-01T00:24:25;4.93;;;4.13;;
9473;SDS011;8865;47.636;7.692;2023-02-01T00:26:51;5.17;;;4.13;;
9473;SDS011;8865;47.636;7.692;2023-02-01T00:29:18;4.83;;;4.30;;
9473;SDS011;8865;47.636;7.692;2023-02-01T00:31:45;5.13;;;4.63;;
9473;SDS011;8865;47.636;7.692;2023-02-01T00:34:12;5.00;;;4.33;;
9473;SDS011;8865;47.636;7.692;2023-02-01T00:36:40;5.80;;;4.30;;
9473;SDS011;8865;47.636;7.692;2023-02-01T00:39:06;6.13;;;4.20;;
9473;SDS011;8865;47.636;7.692;2023-02-01T00:41:33;5.47;;;4.33;;
9473;SDS011;8865;47.636;7.692;2023-02-01T00:43:59;5.23;;;3.90;;
9473;SDS011;8865;47.636;7.692;2023-02-01T00:46:25;5.97;;;4.20;;
9473;SDS011;8865;47.636;7.692;2023-02-01T00:48:51;7.03;;;4.60;;
9473;SDS011;8865;47.636;7.692;2023-02-01T00:51:18;5.07;;;4.20;;
9473;SDS011;8865;47.636;7.692;2023-02-01T00:53:46;5.40;;;4.47;;
9473;SDS011;8865;47.636;7.692;2023-02-01T00:56:12;5.87;;;4.40;;
9473;SDS011;8865;47.636;7.692;2023-02-01T00:58:39;5.93;;;4.37;;
9473;SDS011;8865;47.636;7.692;2023-02-01T01:01:06;6.27;;;4.87;;
9473;SDS011;8865;47.636;7.692;2023-02-01T01:03:36;5.17;;;4.17;;
9473;SDS011;8865;47.636;7.692;2023-02-01T01:06:05;5.50;;;4.63;;
9473;SDS011;8865;47.636;7.692;2023-02-01T01:08:36;5.47;;;4.47;;
9473;SDS011;8865;47.636;7.692;2023-02-01T01:11:13;5.60;;;4.90;;
9473;SDS011;8865;47.636;7.692;2023-02-01T01:13:45;7.80;;;4.53;;
9473;SDS011;8865;47.636;7.692;2023-02-01T01:16:12;7.40;;;4.80;;
9473;SDS011;8865;47.636;7.692;2023-02-01T01:18:38;7.10;;;5.37;;
9473;SDS011;8865;47.636;7.692;2023-02-01T01:21:05;5.43;;;4.77;;
9473;SDS011;8865;47.636;7.692;2023-02-01T01:23:32;5.90;;;4.47;;
9473;SDS011;8865;47.636;7.692;2023-02-01T01:25:58;5.90;;;4.67;;
9473;SDS011;8865;47.636;7.692;2023-02-01T01:28:24;6.27;;;4.67;;
9473;SDS011;8865;47.636;7.692;2023-02-01T01:30:50;6.80;;;4.60;;
9473;SDS011;8865;47.636;7.692;2023-02-01T01:33:16;5.87;;;4.60;;
9473;SDS011;8865;47.636;7.692;2023-02-01T01:35:42;6.97;;;4.80;;
9473;SDS011;8865;47.636;7.692;2023-02-01T01:38:09;5.77;;;5.13;;
9473;SDS011;8865;47.636;7.692;2023-02-01T01:40:36;6.43;;;4.07;;
9473;SDS011;8865;47.636;7.692;2023-02-01T01:43:05;6.03;;;4.53;;
9473;SDS011;8865;47.636;7.692;2023-02-01T01:45:38;5.47;;;4.50;;
9473;SDS011;8865;47.636;7.692;2023-02-01T01:48:05;5.93;;;4.47;;
9473;SDS011;8865;47.636;7.692;2023-02-01T01:50:38;4.83;;;4.33;;
9473;SDS011;8865;47.636;7.692;2023-02-01T01:53:09;7.10;;;4.80;;
9473;SDS011;8865;47.636;7.692;2023-02-01T01:55:41;5.93;;;4.73;;
9473;SDS011;8865;47.636;7.692;2023-02-01T01:58:10;6.10;;;4.60;;
9473;SDS011;8865;47.636;7.692;2023-02-01T02:00:47;6.77;;;4.53;;
9473;SDS011;8865;47.636;7.692;2023-02-01T02:05:47;5.83;;;4.20;;
9473;SDS011;8865;47.636;7.692;2023-02-01T02:08:15;5.37;;;4.23;;
9473;SDS011;8865;47.636;7.692;2023-02-01T02:10:43;6.73;;;4.87;;
9473;SDS011;8865;47.636;7.692;2023-02-01T02:13:29;6.40;;;4.90;;
9473;SDS011;8865;47.636;7.692;2023-02-01T02:38:05;6.70;;;5.50;;
9473;SDS011;8865;47.636;7.692;2023-02-01T02:44:16;6.93;;;5.67;;
9473;SDS011;8865;47.636;7.692;2023-02-01T02:47:27;6.40;;;5.10;;
9473;SDS011;8865;47.636;7.692;2023-02-01T02:50:09;6.30;;;5.17;;
9473;SDS011;8865;47.636;7.692;2023-02-01T02:53:07;6.93;;;5.33;;
9473;SDS011;8865;47.636;7.692;2023-02-01T02:55:57;6.70;;;5.43;;
9473;SDS011;8865;47.636;7.692;2023-02-01T02:58:43;8.07;;;5.93;;
9473;SDS011;8865;47.636;7.692;2023-02-01T03:01:30;8.70;;;6.03;;
9473;SDS011;8865;47.636;7.692;2023-02-01T03:04:16;7.90;;;6.10;;
9473;SDS011;8865;47.636;7.692;2023-02-01T03:06:43;7.93;;;5.50;;
9473;SDS011;8865;47.636;7.692;2023-02-01T03:09:19;7.63;;;6.30;;
9473;SDS011;8865;47.636;7.692;2023-02-01T03:11:56;7.27;;;5.80;;
9473;SDS011;8865;47.636;7.692;2023-02-01T03:14:58;7.90;;;6.03;;
9473;SDS011;8865;47.636;7.692;2023-02-01T03:17:32;7.40;;;5.80;;
9473;SDS011;8865;47.636;7.692;2023-02-01T03:20:05;6.97;;;5.73;;
9473;SDS011;8865;47.636;7.692;2023-02-01T03:22:33;7.30;;;5.60;;
9473;SDS011;8865;47.636;7.692;2023-02-01T03:25:02;8.13;;;6.00;;
9473;SDS011;8865;47.636;7.692;2023-02-01T03:32:43;7.37;;;6.07;;
9473;SDS011;8865;47.636;7.692;2023-02-01T03:38:01;7.40;;;5.53;;
9473;SDS011;8865;47.636;7.692;2023-02-01T03:40:35;8.70;;;6.20;;
9473;SDS011;8865;47.636;7.692;2023-02-01T03:43:03;7.07;;;5.63;;
9473;SDS011;8865;47.636;7.692;2023-02-01T03:45:39;6.47;;;5.43;;
9473;SDS011;8865;47.636;7.692;2023-02-01T03:48:09;9.20;;;5.43;;
9473;SDS011;8865;47.636;7.692;2023-02-01T03:50:38;6.87;;;5.43;;
9473;SDS011;8865;47.636;7.692;2023-02-01T03:53:10;6.97;;;5.40;;
9473;SDS011;8865;47.636;7.692;2023-02-01T03:55:41;9.03;;;5.53;;
9473;SDS011;8865;47.636;7.692;2023-02-01T03:58:18;7.90;;;6.13;;
9473;SDS011;8865;47.636;7.692;2023-02-01T04:00:46;8.33;;;6.40;;
9473;SDS011;8865;47.636;7.692;2023-02-01T04:03:19;7.67;;;6.17;;
9473;SDS011;8865;47.636;7.692;2023-02-01T04:05:48;9.17;;;6.10;;
9473;SDS011;8865;47.636;7.692;2023-02-01T04:08:14;7.13;;;5.50;;
9473;SDS011;8865;47.636;7.692;2023-02-01T04:10:40;7.50;;;6.23;;
9473;SDS011;8865;47.636;7.692;2023-02-01T04:13:06;7.43;;;5.50;;
9473;SDS011;8865;47.636;7.692;2023-02-01T04:15:33;7.13;;;5.80;;
9473;SDS011;8865;47.636;7.692;2023-02-01T04:18:00;11.27;;;6.27;;
9473;SDS011;8865;47.636;7.692;2023-02-01T04:20:26;7.50;;;5.87;;
9473;SDS011;8865;47.636;7.692;2023-02-01T04:22:52;7.57;;;5.60;;
9473;SDS011;8865;47.636;7.692;2023-02-01T04:25:18;7.90;;;5.50;;
9473;SDS011;8865;47.636;7.692;2023-02-01T04:27:44;8.17;;;5.83;;
9473;SDS011;8865;47.636;7.692;2023-02-01T04:30:10;7.70;;;5.87;;
9473;SDS011;8865;47.636;7.692;2023-02-01T04:32:37;6.90;;;5.60;;
9473;SDS011;8865;47.636;7.692;2023-02-01T04:35:04;8.33;;;6.03;;
9473;SDS011;8865;47.636;7.692;2023-02-01T04:37:31;8.33;;;5.83;;
9473;SDS011;8865;47.636;7.692;2023-02-01T04:39:57;6.57;;;5.37;;
9473;SDS011;8865;47.636;7.692;2023-02-01T04:42:23;7.93;;;6.03;;
9473;SDS011;8865;47.636;7.692;2023-02-01T04:44:49;8.30;;;5.70;;
9473;SDS011;8865;47.636;7.692;2023-02-01T04:47:15;8.33;;;6.13;;
9473;SDS011;8865;47.636;7.692;2023-02-01T04:49:41;8.90;;;5.73;;
9473;SDS011;8865;47.636;7.692;2023-02-01T04:52:07;8.33;;;6.00;;
9473;SDS011;8865;47.636;7.692;2023-02-01T04:54:33;8.03;;;5.80;;
9473;SDS011;8865;47.636;7.692;2023-02-01T04:56:59;8.67;;;5.90;;
9473;SDS011;8865;47.636;7.692;2023-02-01T04:59:26;8.93;;;6.13;;
9473;SDS011;8865;47.636;7.692;2023-02-01T05:01:52;6.30;;;5.50;;
9473;SDS011;8865;47.636;7.692;2023-02-01T05:04:18;8.70;;;6.07;;
9473;SDS011;8865;47.636;7.692;2023-02-01T05:06:44;7.67;;;5.60;;
9473;SDS011;8865;47.636;7.692;2023-02-01T05:09:10;6.70;;;5.40;;
9473;SDS011;8865;47.636;7.692;2023-02-01T05:11:37;7.17;;;5.40;;
9473;SDS011;8865;47.636;7.692;2023-02-01T05:14:22;7.70;;;5.80;;
9473;SDS011;8865;47.636;7.692;2023-02-01T05:16:48;10.27;;;6.07;;
9473;SDS011;8865;47.636;7.692;2023-02-01T05:19:14;6.57;;;5.30;;
9473;SDS011;8865;47.636;7.692;2023-02-01T05:21:40;7.40;;;5.57;;
9473;SDS011;8865;47.636;7.692;2023-02-01T05:24:07;7.87;;;5.50;;
9473;SDS011;8865;47.636;7.692;2023-02-01T05:26:45;8.70;;;5.10;;
9473;SDS011;8865;47.636;7.692;2023-02-01T05:29:11;7.17;;;4.97;;
9473;SDS011;8865;47.636;7.692;2023-02-01T05:31:38;7.40;;;5.27;;
9473;SDS011;8865;47.636;7.692;2023-02-01T05:34:05;5.73;;;4.67;;
9473;SDS011;8865;47.636;7.692;2023-02-01T05:36:31;8.43;;;5.37;;
9473;SDS011;8865;47.636;7.692;2023-02-01T05:38:57;12.27;;;8.60;;
9473;SDS011;8865;47.636;7.692;2023-02-01T05:41:23;8.50;;;5.33;;
9473;SDS011;8865;47.636;7.692;2023-02-01T05:43:50;8.87;;;5.23;;
9473;SDS011;8865;47.636;7.692;2023-02-01T05:46:16;5.93;;;4.37;;
9473;SDS011;8865;47.636;7.692;2023-02-01T05:48:42;6.53;;;4.67;;
9473;SDS011;8865;47.636;7.692;2023-02-01T05:51:08;6.30;;;4.97;;
9473;SDS011;8865;47.636;7.692;2023-02-01T05:53:35;7.37;;;5.13;;
9473;SDS011;8865;47.636;7.692;2023-02-01T05:56:02;7.60;;;4.80;;
9473;SDS011;8865;47.636;7.692;2023-02-01T05:58:28;6.93;;;4.60;;
9473;SDS011;8865;47.636;7.692;2023-02-01T06:00:55;12.33;;;9.03;;
9473;SDS011;8865;47.636;7.692;2023-02-01T06:03:21;9.47;;;6.23;;
9473;SDS011;8865;47.636;7.692;2023-02-01T06:05:47;6.47;;;5.00;;
9473;SDS011;8865;47.636;7.692;2023-02-01T06:08:13;6.10;;;4.80;;
9473;SDS011;8865;47.636;7.692;2023-02-01T06:10:40;7.93;;;5.00;;
9473;SDS011;8865;47.636;7.692;2023-02-01T06:13:06;5.83;;;4.60;;
9473;SDS011;8865;47.636;7.692;2023-02-01T06:15:32;6.33;;;4.63;;
9473;SDS011;8865;47.636;7.692;2023-02-01T06:17:59;6.23;;;4.80;;
9473;SDS011;8865;47.636;7.692;2023-02-01T06:20:25;4.97;;;4.20;;
9473;SDS011;8865;47.636;7.692;2023-02-01T06:22:51;6.17;;;4.87;;
9473;SDS011;8865;47.636;7.692;2023-02-01T06:25:18;5.97;;;4.60;;
9473;SDS011;8865;47.636;7.692;2023-02-01T06:27:44;6.57;;;4.47;;
9473;SDS011;8865;47.636;7.692;2023-02-01T06:30:10;6.63;;;4.30;;
9473;SDS011;8865;47.636;7.692;2023-02-01T06:32:39;7.27;;;4.40;;
9473;SDS011;8865;47.636;7.692;2023-02-01T06:35:06;6.13;;;4.43;;
9473;SDS011;8865;47.636;7.692;2023-02-01T06:37:41;6.83;;;4.03;;
9473;SDS011;8865;47.636;7.692;2023-02-01T06:40:08;12.53;;;8.90;;
9473;SDS011;8865;47.636;7.692;2023-02-01T06:42:34;8.43;;;5.53;;
9473;SDS011;8865;47.636;7.692;2023-02-01T06:45:00;6.37;;;4.50;;
9473;SDS011;8865;47.636;7.692;2023-02-01T06:47:26;7.63;;;4.70;;
9473;SDS011;8865;47.636;7.692;2023-02-01T06:49:52;5.80;;;4.07;;
9473;SDS011;8865;47.636;7.692;2023-02-01T06:52:18;7.13;;;4.57;;
9473;SDS011;8865;47.636;7.692;2023-02-01T06:54:44;7.00;;;4.33;;
9473;SDS011;8865;47.636;7.692;2023-02-01T06:57:10;5.17;;;4.33;;
9473;SDS011;8865;47.636;7.692;2023-02-01T06:59:36;7.13;;;4.50;;
9473;SDS011;8865;47.636;7.692;2023-02-01T07:02:02;5.77;;;4.00;;
9473;SDS011;8865;47.636;7.692;2023-02-01T07:04:28;6.57;;;4.53;;
9473;SDS011;8865;47.636;7.692;2023-02-01T07:06:56;6.57;;;4.23;;
9473;SDS011;8865;47.636;7.692;2023-02-01T07:11:50;6.23;;;4.03;;
9473;SDS011;8865;47.636;7.692;2023-02-01T07:14:16;5.40;;;3.73;;
9473;SDS011;8865;47.636;7.692;2023-02-01T07:16:42;7.63;;;4.13;;
9473;SDS011;8865;47.636;7.692;2023-02-01T07:19:08;5.10;;;4.03;;
9473;SDS011;8865;47.636;7.692;2023-02-01T07:21:34;7.13;;;4.20;;
9473;SDS011;8865;47.636;7.692;2023-02-01T07:24:00;5.50;;;4.10;;
9473;SDS011;8865;47.636;7.692;2023-02-01T07:26:26;5.07;;;3.73;;
9473;SDS011;8865;47.636;7.692;2023-02-01T07:28:52;6.47;;;4.20;;
9473;SDS011;8865;47.636;7.692;2023-02-01T07:31:18;4.10;;;3.53;;
9473;SDS011;8865;47.636;7.692;2023-02-01T07:33:50;5.50;;;3.57;;
9473;SDS011;8865;47.636;7.692;2023-02-01T07:36:20;4.37;;;3.83;;
9473;SDS011;8865;47.636;7.692;2023-02-01T07:38:46;4.70;;;3.60;;
9473;SDS011;8865;47.636;7.692;2023-02-01T07:41:12;5.40;;;3.40;;
9473;SDS011;8865;47.636;7.692;2023-02-01T07:43:38;3.93;;;3.40;;
9473;SDS011;8865;47.636;7.692;2023-02-01T07:46:05;5.20;;;3.60;;
9473;SDS011;8865;47.636;7.692;2023-02-01T07:48:32;5.47;;;3.37;;
9473;SDS011;8865;47.636;7.692;2023-02-01T07:51:00;4.07;;;3.43;;
9473;SDS011;8865;47.636;7.692;2023-02-01T07:53:28;4.10;;;3.33;;
9473;SDS011;8865;47.636;7.692;2023-02-01T07:55:55;4.33;;;3.30;;
9473;SDS011;8865;47.636;7.692;2023-02-01T07:58:22;5.00;;;3.40;;
9473;SDS011;8865;47.636;7.692;2023-02-01T08:00:48;3.80;;;2.70;;
9473;SDS011;8865;47.636;7.692;2023-02-01T08:03:33;3.07;;;2.50;;
9473;SDS011;8865;47.636;7.692;2023-02-01T08:05:59;3.17;;;2.80;;
9473;SDS011;8865;47.636;7.692;2023-02-01T08:08:25;5.57;;;2.60;;
9473;SDS011;8865;47.636;7.692;2023-02-01T08:10:56;3.40;;;2.27;;
9473;SDS011;8865;47.636;7.692;2023-02-01T08:13:22;3.90;;;2.60;;
9473;SDS011;8865;47.636;7.692;2023-02-01T08:15:49;3.17;;;2.40;;
9473;SDS011;8865;47.636;7.692;2023-02-01T08:18:15;4.20;;;2.80;;
9473;SDS011;8865;47.636;7.692;2023-02-01T08:20:46;3.73;;;2.67;;
9473;SDS011;8865;47.636;7.692;2023-02-01T08:23:13;7.20;;;2.80;;
9473;SDS011;8865;47.636;7.692;2023-02-01T08:25:39;5.87;;;2.60;;
9473;SDS011;8865;47.636;7.692;2023-02-01T08:28:05;5.27;;;2.53;;
9473;SDS011;8865;47.636;7.692;2023-02-01T08:30:32;3.53;;;2.83;;
9473;SDS011;8865;47.636;7.692;2023-02-01T08:32:58;2.87;;;2.20;;
9473;SDS011;8865;47.636;7.692;2023-02-01T08:35:24;2.63;;;2.30;;
9473;SDS011;8865;47.636;7.692;2023-02-01T08:37:50;3.47;;;2.30;;
9473;SDS011;8865;47.636;7.692;2023-02-01T08:40:16;3.03;;;2.30;;
9473;SDS011;8865;47.636;7.692;2023-02-01T08:42:42;3.40;;;2.20;;
9473;SDS011;8865;47.636;7.692;2023-02-01T08:45:18;3.57;;;2.20;;
9473;SDS011;8865;47.636;7.692;2023-02-01T08:47:51;3.47;;;2.40;;
9473;SDS011;8865;47.636;7.692;2023-02-01T08:50:18;4.60;;;1.90;;
9473;SDS011;8865;47.636;7.692;2023-02-01T08:52:46;3.67;;;2.40;;
9473;SDS011;8865;47.636;7.692;2023-02-01T08:55:12;3.90;;;2.40;;
9473;SDS011;8865;47.636;7.692;2023-02-01T08:57:39;2.27;;;2.00;;
9473;SDS011;8865;47.636;7.692;2023-02-01T09:00:06;2.97;;;2.07;;
9473;SDS011;8865;47.636;7.692;2023-02-01T09:02:35;2.80;;;2.50;;
9473;SDS011;8865;47.636;7.692;2023-02-01T09:05:01;3.83;;;2.30;;
9473;SDS011;8865;47.636;7.692;2023-02-01T09:07:27;2.60;;;1.90;;
9473;SDS011;8865;47.636;7.692;2023-02-01T09:09:53;3.43;;;1.80;;
9473;SDS011;8865;47.636;7.692;2023-02-01T09:12:22;2.40;;;2.00;;
9473;SDS011;8865;47.636;7.692;2023-02-01T09:14:48;3.00;;;2.20;;
9473;SDS011;8865;47.636;7.692;2023-02-01T09:17:14;2.63;;;1.87;;
9473;SDS011;8865;47.636;7.692;2023-02-01T09:19:40;2.40;;;1.93;;
9473;SDS011;8865;47.636;7.692;2023-02-01T09:22:06;3.57;;;2.20;;
9473;SDS011;8865;47.636;7.692;2023-02-01T09:24:32;2.67;;;1.97;;
9473;SDS011;8865;47.636;7.692;2023-02-01T09:26:58;4.60;;;2.10;;
9473;SDS011;8865;47.636;7.692;2023-02-01T09:29:24;2.93;;;2.07;;
9473;SDS011;8865;47.636;7.692;2023-02-01T09:31:50;2.67;;;2.10;;
9473;SDS011;8865;47.636;7.692;2023-02-01T09:34:16;2.53;;;2.00;;
9473;SDS011;8865;47.636;7.692;2023-02-01T09:36:42;2.77;;;1.90;;
9473;SDS011;8865;47.636;7.692;2023-02-01T09:39:08;3.27;;;2.40;;
9473;SDS011;8865;47.636;7.692;2023-02-01T09:41:40;2.93;;;2.47;;
9473;SDS011;8865;47.636;7.692;2023-02-01T09:47:22;3.40;;;2.30;;
9473;SDS011;8865;47.636;7.692;2023-02-01T09:49:56;3.77;;;2.10;;
9473;SDS011;8865;47.636;7.692;2023-02-01T09:52:38;3.80;;;2.40;;
9473;SDS011;8865;47.636;7.692;2023-02-01T09:55:32;4.43;;;2.20;;
9473;SDS011;8865;47.636;7.692;2023-02-01T09:57:58;3.43;;;2.23;;
9473;SDS011;8865;47.636;7.692;2023-02-01T10:00:34;3.00;;;2.20;;
9473;SDS011;8865;47.636;7.692;2023-02-01T10:03:03;4.23;;;2.20;;
9473;SDS011;8865;47.636;7.692;2023-02-01T10:19:44;5.17;;;2.40;;
9473;SDS011;8865;47.636;7.692;2023-02-01T10:22:57;5.33;;;2.50;;
9473;SDS011;8865;47.636;7.692;2023-02-01T10:25:23;6.77;;;2.50;;
9473;SDS011;8865;47.636;7.692;2023-02-01T10:27:54;5.20;;;2.80;;
9473;SDS011;8865;47.636;7.692;2023-02-01T10:30:22;4.43;;;2.60;;
9473;SDS011;8865;47.636;7.692;2023-02-01T10:32:55;6.03;;;2.63;;
9473;SDS011;8865;47.636;7.692;2023-02-01T10:35:29;4.70;;;2.67;;
9473;SDS011;8865;47.636;7.692;2023-02-01T10:38:02;5.90;;;2.60;;
9473;SDS011;8865;47.636;7.692;2023-02-01T10:40:32;3.40;;;2.30;;
9473;SDS011;8865;47.636;7.692;2023-02-01T10:43:00;4.23;;;2.20;;
9473;SDS011;8865;47.636;7.692;2023-02-01T10:45:28;7.07;;;2.60;;
9473;SDS011;8865;47.636;7.692;2023-02-01T10:47:57;4.47;;;2.50;;
9473;SDS011;8865;47.636;7.692;2023-02-01T10:55:39;4.90;;;2.80;;
9473;SDS011;8865;47.636;7.692;2023-02-01T10:58:16;4.23;;;2.80;;
9473;SDS011;8865;47.636;7.692;2023-02-01T11:00:48;5.47;;;3.00;;
9473;SDS011;8865;47.636;7.692;2023-02-01T11:05:58;4.37;;;2.80;;
9473;SDS011;8865;47.636;7.692;2023-02-01T11:08:25;5.63;;;3.00;;
9473;SDS011;8865;47.636;7.692;2023-02-01T11:10:58;6.27;;;3.20;;
9473;SDS011;8865;47.636;7.692;2023-02-01T11:13:33;5.93;;;2.90;;
9473;SDS011;8865;47.636;7.692;2023-02-01T11:16:04;6.10;;;2.80;;
9473;SDS011;8865;47.636;7.692;2023-02-01T11:18:37;6.73;;;2.80;;
9473;SDS011;8865;47.636;7.692;2023-02-01T11:21:04;6.37;;;2.87;;
9473;SDS011;8865;47.636;7.692;2023-02-01T11:23:32;7.33;;;3.00;;
9473;SDS011;8865;47.636;7.692;2023-02-01T11:26:21;6.57;;;3.30;;
9473;SDS011;8865;47.636;7.692;2023-02-01T11:29:02;6.93;;;3.30;;
9473;SDS011;8865;47.636;7.692;2023-02-01T11:31:30;8.43;;;3.17;;
9473;SDS011;8865;47.636;7.692;2023-02-01T11:34:11;6.87;;;3.07;;
9473;SDS011;8865;47.636;7.692;2023-02-01T11:36:41;10.10;;;3.53;;
9473;SDS011;8865;47.636;7.692;2023-02-01T11:44:22;8.03;;;3.17;;
9473;SDS011;8865;47.636;7.692;2023-02-01T11:46:55;6.80;;;3.17;;
9473;SDS011;8865;47.636;7.692;2023-02-01T11:49:37;9.53;;;3.00;;
9473;SDS011;8865;47.636;7.692;2023-02-01T12:02:56;7.77;;;3.00;;
9473;SDS011;8865;47.636;7.692;2023-02-01T12:11:21;7.50;;;2.90;;
9473;SDS011;8865;47.636;7.692;2023-02-01T12:16:58;7.00;;;3.53;;
9473;SDS011;8865;47.636;7.692;2023-02-01T12:28:52;7.20;;;3.03;;
9473;SDS011;8865;47.636;7.692;2023-02-01T12:31:44;7.30;;;3.00;;
9473;SDS011;8865;47.636;7.692;2023-02-01T12:37:23;8.33;;;3.60;;
9473;SDS011;8865;47.636;7.692;2023-02-01T12:42:53;8.43;;;3.23;;
9473;SDS011;8865;47.636;7.692;2023-02-01T12:45:58;9.67;;;3.00;;
9473;SDS011;8865;47.636;7.692;2023-02-01T12:51:10;8.37;;;2.97;;
9473;SDS011;8865;47.636;7.692;2023-02-01T12:53:45;7.73;;;3.10;;
9473;SDS011;8865;47.636;7.692;2023-02-01T12:59:41;6.80;;;2.60;;
9473;SDS011;8865;47.636;7.692;2023-02-01T13:02:19;9.23;;;2.97;;
9473;SDS011;8865;47.636;7.692;2023-02-01T13:04:59;8.30;;;2.87;;
9473;SDS011;8865;47.636;7.692;2023-02-01T13:07:55;9.07;;;2.90;;
9473;SDS011;8865;47.636;7.692;2023-02-01T13:10:42;8.47;;;3.40;;
9473;SDS011;8865;47.636;7.692;2023-02-01T13:16:17;7.40;;;2.53;;
9473;SDS011;8865;47.636;7.692;2023-02-01T13:18:53;8.27;;;2.93;;
9473;SDS011;8865;47.636;7.692;2023-02-01T13:21:27;7.27;;;3.27;;
9473;SDS011;8865;47.636;7.692;2023-02-01T13:23:57;8.50;;;3.00;;
9473;SDS011;8865;47.636;7.692;2023-02-01T13:26:24;10.87;;;3.17;;
9473;SDS011;8865;47.636;7.692;2023-02-01T13:28:51;11.17;;;3.30;;
9473;SDS011;8865;47.636;7.692;2023-02-01T13:34:16;7.47;;;2.50;;
9473;SDS011;8865;47.636;7.692;2023-02-01T13:42:23;8.97;;;3.43;;
9473;SDS011;8865;47.636;7.692;2023-02-01T13:45:37;8.00;;;3.00;;
9473;SDS011;8865;47.636;7.692;2023-02-01T13:47:46;11.50;;;3.37;;
9473;SDS011;8865;47.636;7.692;2023-02-01T13:53:13;11.83;;;3.43;;
9473;SDS011;8865;47.636;7.692;2023-02-01T13:55:44;11.13;;;3.50;;
9473;SDS011;8865;47.636;7.692;2023-02-01T13:58:30;9.80;;;3.50;;
9473;SDS011;8865;47.636;7.692;2023-02-01T14:03:52;8.10;;;2.93;;
9473;SDS011;8865;47.636;7.692;2023-02-01T14:11:35;9.90;;;3.37;;
9473;SDS011;8865;47.636;7.692;2023-02-01T14:21:48;9.90;;;3.07;;
9473;SDS011;8865;47.636;7.692;2023-02-01T14:24:25;10.37;;;3.23;;
9473;SDS011;8865;47.636;7.692;2023-02-01T14:26:53;10.17;;;3.37;;
9473;SDS011;8865;47.636;7.692;2023-02-01T14:29:40;8.63;;;2.83;;
9473;SDS011;8865;47.636;7.692;2023-02-01T14:37:23;12.13;;;3.33;;
9473;SDS011;8865;47.636;7.692;2023-02-01T14:53:25;10.93;;;4.80;;
9473;SDS011;8865;47.636;7.692;2023-02-01T14:58:39;9.70;;;3.37;;
9473;SDS011;8865;47.636;7.692;2023-02-01T15:04:09;10.97;;;3.63;;
9473;SDS011;8865;47.636;7.692;2023-02-01T15:09:07;11.60;;;3.50;;
9473;SDS011;8865;47.636;7.692;2023-02-01T15:14:44;13.07;;;3.60;;
9473;SDS011;8865;47.636;7.692;2023-02-01T15:17:28;11.17;;;3.70;;
9473;SDS011;8865;47.636;7.692;2023-02-01T15:20:03;11.23;;;3.77;;
9473;SDS011;8865;47.636;7.692;2023-02-01T15:22:38;9.77;;;4.40;;
9473;SDS011;8865;47.636;7.692;2023-02-01T15:25:05;8.50;;;4.97;;
9473;SDS011;8865;47.636;7.692;2023-02-01T15:27:32;9.20;;;4.67;;
9473;SDS011;8865;47.636;7.692;2023-02-01T15:30:12;15.23;;;6.43;;
9473;SDS011;8865;47.636;7.692;2023-02-01T15:32:43;10.90;;;4.60;;
9473;SDS011;8865;47.636;7.692;2023-02-01T15:41:02;9.53;;;3.20;;
9473;SDS011;8865;47.636;7.692;2023-02-01T15:43:35;12.00;;;2.90;;
9473;SDS011;8865;47.636;7.692;2023-02-01T15:46:03;10.70;;;3.00;;
9473;SDS011;8865;47.636;7.692;2023-02-01T15:49:11;9.37;;;3.20;;
9473;SDS011;8865;47.636;7.692;2023-02-01T15:51:26;8.03;;;3.00;;
9473;SDS011;8865;47.636;7.692;2023-02-01T15:53:56;10.53;;;3.20;;
9473;SDS011;8865;47.636;7.692;2023-02-01T15:56:28;12.23;;;3.40;;
9473;SDS011;8865;47.636;7.692;2023-02-01T15:59:00;11.50;;;3.37;;
9473;SDS011;8865;47.636;7.692;2023-02-01T16:01:28;13.53;;;4.13;;
9473;SDS011;8865;47.636;7.692;2023-02-01T16:06:45;18.77;;;9.47;;
9473;SDS011;8865;47.636;7.692;2023-02-01T16:09:14;11.20;;;3.30;;
9473;SDS011;8865;47.636;7.692;2023-02-01T16:14:17;11.30;;;3.97;;
9473;SDS011;8865;47.636;7.692;2023-02-01T16:16:44;15.40;;;3.60;;
9473;SDS011;8865;47.636;7.692;2023-02-01T16:19:10;12.20;;;3.63;;
9473;SDS011;8865;47.636;7.692;2023-02-01T16:21:36;12.07;;;3.47;;
9473;SDS011;8865;47.636;7.692;2023-02-01T16:24:02;9.97;;;3.20;;
9473;SDS011;8865;47.636;7.692;2023-02-01T16:26:30;13.20;;;3.20;;
9473;SDS011;8865;47.636;7.692;2023-02-01T16:28:57;11.73;;;3.63;;
9473;SDS011;8865;47.636;7.692;2023-02-01T16:31:27;11.00;;;3.20;;
9473;SDS011;8865;47.636;7.692;2023-02-01T16:33:56;8.10;;;3.10;;
9473;SDS011;8865;47.636;7.692;2023-02-01T16:36:22;12.03;;;3.50;;
9473;SDS011;8865;47.636;7.692;2023-02-01T16:38:49;7.30;;;3.20;;
9473;SDS011;8865;47.636;7.692;2023-02-01T16:41:17;10.13;;;3.40;;
9473;SDS011;8865;47.636;7.692;2023-02-01T16:43:44;8.97;;;3.10;;
9473;SDS011;8865;47.636;7.692;2023-02-01T16:46:12;9.13;;;3.33;;
9473;SDS011;8865;47.636;7.692;2023-02-01T16:48:41;9.53;;;3.50;;
9473;SDS011;8865;47.636;7.692;2023-02-01T16:51:12;9.63;;;3.47;;
9473;SDS011;8865;47.636;7.692;2023-02-01T16:53:40;10.97;;;3.33;;
9473;SDS011;8865;47.636;7.692;2023-02-01T16:58:39;12.57;;;3.33;;
9473;SDS011;8865;47.636;7.692;2023-02-01T17:01:06;8.50;;;3.23;;
9473;SDS011;8865;47.636;7.692;2023-02-01T17:03:32;10.30;;;3.57;;
9473;SDS011;8865;47.636;7.692;2023-02-01T17:05:58;10.97;;;3.23;;
9473;SDS011;8865;47.636;7.692;2023-02-01T17:08:27;11.37;;;3.67;;
9473;SDS011;8865;47.636;7.692;2023-02-01T17:10:56;7.60;;;2.90;;
9473;SDS011;8865;47.636;7.692;2023-02-01T17:13:22;9.30;;;3.03;;
9473;SDS011;8865;47.636;7.692;2023-02-01T17:15:58;10.23;;;3.63;;
9473;SDS011;8865;47.636;7.692;2023-02-01T17:18:28;9.87;;;3.50;;
9473;SDS011;8865;47.636;7.692;2023-02-01T17:20:58;7.83;;;3.00;;
9473;SDS011;8865;47.636;7.692;2023-02-01T17:23:25;6.97;;;2.80;;
9473;SDS011;8865;47.636;7.692;2023-02-01T17:25:52;9.17;;;3.40;;
9473;SDS011;8865;47.636;7.692;2023-02-01T17:28:18;10.93;;;3.20;;
9473;SDS011;8865;47.636;7.692;2023-02-01T17:30:44;11.73;;;3.00;;
9473;SDS011;8865;47.636;7.692;2023-02-01T17:33:17;8.37;;;3.17;;
9473;SDS011;8865;47.636;7.692;2023-02-01T17:35:47;7.00;;;2.67;;
9473;SDS011;8865;47.636;7.692;2023-02-01T17:38:13;10.17;;;3.20;;
9473;SDS011;8865;47.636;7.692;2023-02-01T17:40:39;9.20;;;3.07;;
9473;SDS011;8865;47.636;7.692;2023-02-01T17:43:05;10.37;;;4.23;;
9473;SDS011;8865;47.636;7.692;2023-02-01T17:45:37;12.03;;;4.73;;
9473;SDS011;8865;47.636;7.692;2023-02-01T17:48:16;12.33;;;3.47;;
9473;SDS011;8865;47.636;7.692;2023-02-01T17:50:42;10.03;;;3.10;;
9473;SDS011;8865;47.636;7.692;2023-02-01T17:53:09;10.10;;;3.30;;
9473;SDS011;8865;47.636;7.692;2023-02-01T17:55:36;12.53;;;3.70;;
9473;SDS011;8865;47.636;7.692;2023-02-01T17:58:05;11.37;;;3.57;;
9473;SDS011;8865;47.636;7.692;2023-02-01T18:00:31;10.17;;;3.20;;
9473;SDS011;8865;47.636;7.692;2023-02-01T18:02:57;11.63;;;3.37;;
9473;SDS011;8865;47.636;7.692;2023-02-01T18:05:39;9.07;;;3.10;;
9473;SDS011;8865;47.636;7.692;2023-02-01T18:08:06;7.83;;;3.17;;
9473;SDS011;8865;47.636;7.692;2023-02-01T18:10:33;9.23;;;3.07;;
9473;SDS011;8865;47.636;7.692;2023-02-01T18:13:00;8.20;;;2.90;;
9473;SDS011;8865;47.636;7.692;2023-02-01T18:15:28;9.40;;;2.93;;
9473;SDS011;8865;47.636;7.692;2023-02-01T18:17:55;9.30;;;3.27;;
9473;SDS011;8865;47.636;7.692;2023-02-01T18:20:22;10.37;;;3.37;;
9473;SDS011;8865;47.636;7.692;2023-02-01T18:22:49;8.47;;;3.27;;
9473;SDS011;8865;47.636;7.692;2023-02-01T18:27:46;21.90;;;8.33;;
9473;SDS011;8865;47.636;7.692;2023-02-01T18:30:17;9.37;;;3.47;;
9473;SDS011;8865;47.636;7.692;2023-02-01T18:32:47;10.90;;;3.43;;
9473;SDS011;8865;47.636;7.692;2023-02-01T18:35:15;7.07;;;3.20;;